createdAt,value
2019-02-23T00:00:21.533Z,0
2019-02-23T00:01:02.130Z,0
2019-02-23T00:01:42.726Z,0
2019-02-23T00:02:23.393Z,0
2019-02-23T00:03:03.991Z,0
2019-02-23T00:03:44.722Z,0
2019-02-23T00:04:25.301Z,0
2019-02-23T00:05:05.898Z,0
2019-02-23T00:05:46.524Z,0
2019-02-23T00:06:29.987Z,0
2019-02-23T00:07:07.678Z,0
2019-02-23T00:07:48.213Z,0
2019-02-23T00:08:28.789Z,0
2019-02-23T00:09:09.422Z,0
2019-02-23T00:09:50.112Z,0
2019-02-23T00:10:30.671Z,0
2019-02-23T00:11:11.240Z,0
2019-02-23T00:11:51.815Z,0
2019-02-23T00:12:32.373Z,0
2019-02-23T00:13:12.930Z,0
2019-02-23T00:13:53.510Z,0
2019-02-23T00:14:34.064Z,0
2019-02-23T00:15:14.660Z,0
2019-02-23T00:15:55.218Z,0
2019-02-23T00:16:35.806Z,0
2019-02-23T00:17:16.421Z,0
2019-02-23T00:17:56.993Z,0
2019-02-23T00:18:37.548Z,0
2019-02-23T00:19:24.663Z,0
2019-02-23T00:19:58.723Z,0
2019-02-23T00:20:39.328Z,0
2019-02-23T00:21:19.913Z,0
2019-02-23T00:22:00.486Z,0
2019-02-23T00:22:41.055Z,0
2019-02-23T00:23:21.598Z,0
2019-02-23T00:24:02.220Z,0
2019-02-23T00:24:42.800Z,0
2019-02-23T00:25:23.370Z,0
2019-02-23T00:26:03.939Z,0
2019-02-23T00:26:44.523Z,0
2019-02-23T00:27:25.088Z,0
2019-02-23T00:28:05.667Z,0
2019-02-23T00:28:46.230Z,0
2019-02-23T00:29:26.811Z,0
2019-02-23T00:30:07.382Z,0
2019-02-23T00:30:48.039Z,0
2019-02-23T00:31:28.718Z,0
2019-02-23T00:32:09.412Z,0
2019-02-23T00:32:50.044Z,0
2019-02-23T00:33:30.673Z,0
2019-02-23T00:34:11.313Z,0
2019-02-23T00:34:51.890Z,0
2019-02-23T00:35:32.465Z,0
2019-02-23T00:36:13.034Z,0
2019-02-23T00:36:53.611Z,0
2019-02-23T00:37:34.171Z,0
2019-02-23T00:38:14.796Z,0
2019-02-23T00:38:55.367Z,0
2019-02-23T00:39:36.065Z,0
2019-02-23T00:40:16.675Z,0
2019-02-23T00:40:57.231Z,0
2019-02-23T00:41:37.806Z,0
2019-02-23T00:42:18.355Z,0
2019-02-23T00:42:58.910Z,0
2019-02-23T00:43:39.497Z,0
2019-02-23T00:44:20.073Z,0
2019-02-23T00:45:00.637Z,0
2019-02-23T00:45:41.218Z,0
2019-02-23T00:46:21.785Z,0
2019-02-23T00:47:02.384Z,0
2019-02-23T00:47:42.940Z,0
2019-02-23T00:48:23.533Z,0
2019-02-23T00:49:04.097Z,0
2019-02-23T00:49:44.693Z,0
2019-02-23T00:50:25.251Z,0
2019-02-23T00:51:05.819Z,0
2019-02-23T00:51:46.376Z,0
2019-02-23T00:52:26.945Z,0
2019-02-23T00:53:07.525Z,0
2019-02-23T00:53:48.064Z,0
2019-02-23T00:54:28.647Z,0
2019-02-23T00:55:09.218Z,0
2019-02-23T00:55:49.787Z,0
2019-02-23T00:56:30.355Z,0
2019-02-23T00:57:10.971Z,0
2019-02-23T00:57:51.560Z,0
2019-02-23T00:58:32.107Z,0
2019-02-23T00:59:12.689Z,0
2019-02-23T00:59:53.261Z,0
2019-02-23T01:00:33.822Z,0
2019-02-23T01:01:14.373Z,0
2019-02-23T01:01:54.927Z,0
2019-02-23T01:02:35.524Z,0
2019-02-23T01:03:16.082Z,0
2019-02-23T01:03:56.627Z,0
2019-02-23T01:04:37.193Z,0
2019-02-23T01:05:17.752Z,0
2019-02-23T01:05:58.328Z,0
2019-02-23T01:06:38.886Z,0
2019-02-23T01:07:19.459Z,0
2019-02-23T01:08:00.107Z,0
2019-02-23T01:08:40.696Z,0
2019-02-23T01:09:21.333Z,0
2019-02-23T01:10:01.890Z,0
2019-02-23T01:10:42.431Z,0
2019-02-23T01:11:22.998Z,0
2019-02-23T01:12:03.580Z,0
2019-02-23T01:12:44.197Z,0
2019-02-23T01:13:24.793Z,0
2019-02-23T01:14:05.376Z,0
2019-02-23T01:14:45.983Z,0
2019-02-23T01:15:26.547Z,0
2019-02-23T01:16:07.167Z,0
2019-02-23T01:16:47.754Z,0
2019-02-23T01:17:28.334Z,0
2019-02-23T01:18:08.911Z,0
2019-02-23T01:18:49.473Z,0
2019-02-23T01:19:30.062Z,0
2019-02-23T01:20:10.643Z,0
2019-02-23T01:20:51.248Z,0
2019-02-23T01:21:31.814Z,0
2019-02-23T01:22:12.422Z,0
2019-02-23T01:22:52.969Z,0
2019-02-23T01:23:33.554Z,0
2019-02-23T01:24:14.120Z,0
2019-02-23T01:24:54.704Z,0
2019-02-23T01:25:35.256Z,0
2019-02-23T01:26:15.825Z,0
2019-02-23T01:26:56.385Z,0
2019-02-23T01:27:36.935Z,0
2019-02-23T01:28:17.496Z,0
2019-02-23T01:29:01.130Z,0
2019-02-23T01:29:41.693Z,0
2019-02-23T01:30:22.263Z,0
2019-02-23T01:31:02.822Z,0
2019-02-23T01:31:43.393Z,0
2019-02-23T01:32:24.050Z,0
2019-02-23T01:33:04.613Z,0
2019-02-23T01:33:45.190Z,0
2019-02-23T01:34:25.762Z,0
2019-02-23T01:35:06.301Z,0
2019-02-23T01:35:46.931Z,0
2019-02-23T01:36:27.513Z,0
2019-02-23T01:37:08.069Z,0
2019-02-23T01:37:48.620Z,0
2019-02-23T01:38:29.202Z,0
2019-02-23T01:39:09.754Z,0
2019-02-23T01:39:50.291Z,0
2019-02-23T01:40:30.870Z,0
2019-02-23T01:41:11.451Z,0
2019-02-23T01:41:51.992Z,0
2019-02-23T01:42:32.610Z,0
2019-02-23T01:43:13.195Z,0
2019-02-23T01:43:53.749Z,0
2019-02-23T01:44:34.345Z,0
2019-02-23T01:45:14.879Z,0
2019-02-23T01:45:55.442Z,0
2019-02-23T01:46:35.995Z,0
2019-02-23T01:47:16.586Z,0
2019-02-23T01:47:57.169Z,0
2019-02-23T01:48:37.729Z,0
2019-02-23T01:49:18.310Z,0
2019-02-23T01:49:59.387Z,0
2019-02-23T01:50:39.456Z,0
2019-02-23T01:51:20.066Z,0
2019-02-23T01:52:00.651Z,0
2019-02-23T01:52:41.184Z,0
2019-02-23T01:53:21.734Z,0
2019-02-23T01:54:02.288Z,0
2019-02-23T01:54:42.849Z,0
2019-02-23T01:55:23.476Z,0
2019-02-23T01:56:04.158Z,0
2019-02-23T01:56:44.753Z,0
2019-02-23T01:57:25.314Z,0
2019-02-23T01:58:05.868Z,0
2019-02-23T01:58:46.798Z,0
2019-02-23T01:59:27.356Z,0
2019-02-23T02:00:07.922Z,0
2019-02-23T02:00:48.507Z,0
2019-02-23T02:01:29.095Z,0
2019-02-23T02:02:09.649Z,0
2019-02-23T02:02:50.191Z,0
2019-02-23T02:03:30.760Z,0
2019-02-23T02:04:11.381Z,0
2019-02-23T02:04:51.974Z,0
2019-02-23T02:05:32.538Z,0
2019-02-23T02:06:13.097Z,0
2019-02-23T02:06:53.675Z,0
2019-02-23T02:07:34.231Z,0
2019-02-23T02:08:14.843Z,0
2019-02-23T02:08:55.416Z,0
2019-02-23T02:09:35.962Z,0
2019-02-23T02:10:16.511Z,0
2019-02-23T02:10:57.064Z,0
2019-02-23T02:11:37.633Z,0
2019-02-23T02:12:18.178Z,0
2019-02-23T02:12:58.760Z,0
2019-02-23T02:13:39.286Z,0
2019-02-23T02:14:19.878Z,0
2019-02-23T02:15:00.439Z,0
2019-02-23T02:15:41.060Z,0
2019-02-23T02:16:21.636Z,0
2019-02-23T02:17:02.205Z,0
2019-02-23T02:17:42.790Z,0
2019-02-23T02:18:23.366Z,0
2019-02-23T02:19:03.948Z,0
2019-02-23T02:19:44.512Z,0
2019-02-23T02:20:25.122Z,0
2019-02-23T02:21:05.682Z,0
2019-02-23T02:21:46.248Z,0
2019-02-23T02:22:26.799Z,0
2019-02-23T02:23:07.362Z,0
2019-02-23T02:23:47.915Z,0
2019-02-23T02:24:28.465Z,0
2019-02-23T02:25:09.008Z,0
2019-02-23T02:25:49.614Z,0
2019-02-23T02:26:30.195Z,0
2019-02-23T02:27:10.816Z,0
2019-02-23T02:27:51.389Z,0
2019-02-23T02:28:31.975Z,0
2019-02-23T02:29:12.519Z,0
2019-02-23T02:29:53.118Z,0
2019-02-23T02:30:33.674Z,0
2019-02-23T02:31:14.229Z,0
2019-02-23T02:31:54.793Z,0
2019-02-23T02:32:35.378Z,0
2019-02-23T02:33:15.928Z,0
2019-02-23T02:33:56.493Z,0
2019-02-23T02:34:37.051Z,0
2019-02-23T02:35:17.610Z,0
2019-02-23T02:35:58.161Z,0
2019-02-23T02:36:38.745Z,0
2019-02-23T02:37:19.306Z,0
2019-02-23T02:37:59.941Z,0
2019-02-23T02:38:40.495Z,0
2019-02-23T02:39:21.059Z,0
2019-02-23T02:40:01.633Z,0
2019-02-23T02:40:42.207Z,0
2019-02-23T02:41:22.804Z,0
2019-02-23T02:42:03.411Z,0
2019-02-23T02:42:44.014Z,0
2019-02-23T02:43:24.648Z,0
2019-02-23T02:44:05.202Z,0
2019-02-23T02:44:45.774Z,0
2019-02-23T02:45:26.335Z,0
2019-02-23T02:46:06.983Z,0
2019-02-23T02:46:47.569Z,0
2019-02-23T02:47:28.145Z,0
2019-02-23T02:48:08.745Z,0
2019-02-23T02:48:49.321Z,0
2019-02-23T02:49:29.887Z,0
2019-02-23T02:50:23.254Z,0
2019-02-23T02:50:51.216Z,0
2019-02-23T02:51:31.783Z,0
2019-02-23T02:52:12.328Z,0
2019-02-23T02:52:52.875Z,0
2019-02-23T02:53:33.451Z,0
2019-02-23T02:54:14.005Z,0
2019-02-23T02:54:54.569Z,0
2019-02-23T02:55:35.118Z,0
2019-02-23T02:56:15.689Z,0
2019-02-23T02:56:56.252Z,0
2019-02-23T02:57:36.807Z,0
2019-02-23T02:58:17.366Z,0
2019-02-23T02:58:58.381Z,0
2019-02-23T02:59:38.949Z,0
2019-02-23T03:00:19.570Z,0
2019-02-23T03:01:00.254Z,0
2019-02-23T03:01:40.882Z,0
2019-02-23T03:02:21.491Z,0
2019-02-23T03:03:02.078Z,0
2019-02-23T03:03:42.652Z,0
2019-02-23T03:04:23.210Z,0
2019-02-23T03:05:03.786Z,0
2019-02-23T03:05:44.352Z,0
2019-02-23T03:06:24.925Z,0
2019-02-23T03:07:05.504Z,0
2019-02-23T03:07:46.179Z,0
2019-02-23T03:08:26.782Z,0
2019-02-23T03:09:07.348Z,0
2019-02-23T03:09:47.923Z,0
2019-02-23T03:10:28.531Z,0
2019-02-23T03:11:09.089Z,0
2019-02-23T03:11:49.661Z,0
2019-02-23T03:12:30.294Z,0
2019-02-23T03:13:10.873Z,0
2019-02-23T03:13:51.431Z,0
2019-02-23T03:14:32.016Z,0
2019-02-23T03:15:12.585Z,0
2019-02-23T03:15:53.169Z,0
2019-02-23T03:16:33.769Z,0
2019-02-23T03:17:14.413Z,0
2019-02-23T03:17:55.022Z,0
2019-02-23T03:18:35.583Z,0
2019-02-23T03:19:16.140Z,0
2019-02-23T03:19:56.687Z,0
2019-02-23T03:20:37.231Z,0
2019-02-23T03:21:17.830Z,0
2019-02-23T03:21:58.499Z,0
2019-02-23T03:22:39.077Z,0
2019-02-23T03:23:19.653Z,0
2019-02-23T03:24:00.221Z,0
2019-02-23T03:24:40.775Z,0
2019-02-23T03:25:21.327Z,0
2019-02-23T03:26:01.936Z,0
2019-02-23T03:26:42.557Z,0
2019-02-23T03:27:23.116Z,0
2019-02-23T03:28:03.711Z,0
2019-02-23T03:28:44.261Z,0
2019-02-23T03:29:24.838Z,0
2019-02-23T03:30:05.419Z,0
2019-02-23T03:30:46.022Z,0
2019-02-23T03:31:26.614Z,0
2019-02-23T03:32:07.220Z,0
2019-02-23T03:32:47.817Z,0
2019-02-23T03:33:28.451Z,0
2019-02-23T03:34:08.947Z,0
2019-02-23T03:34:49.534Z,0
2019-02-23T03:35:30.090Z,0
2019-02-23T03:36:10.701Z,0
2019-02-23T03:36:51.274Z,0
2019-02-23T03:37:31.836Z,0
2019-02-23T03:38:12.438Z,0
2019-02-23T03:38:53.026Z,0
2019-02-23T03:39:33.631Z,0
2019-02-23T03:40:14.167Z,0
2019-02-23T03:40:54.729Z,0
2019-02-23T03:41:35.294Z,0
2019-02-23T03:42:15.897Z,0
2019-02-23T03:42:56.464Z,0
2019-02-23T03:43:37.040Z,0
2019-02-23T03:44:17.598Z,0
2019-02-23T03:44:58.169Z,0
2019-02-23T03:45:38.743Z,0
2019-02-23T03:46:19.325Z,0
2019-02-23T03:46:59.932Z,0
2019-02-23T03:47:40.502Z,0
2019-02-23T03:48:21.053Z,0
2019-02-23T03:49:01.672Z,0
2019-02-23T03:49:42.252Z,0
2019-02-23T03:50:22.824Z,0
2019-02-23T03:51:03.404Z,0
2019-02-23T03:51:44.026Z,0
2019-02-23T03:52:24.522Z,0
2019-02-23T03:53:05.125Z,0
2019-02-23T03:53:45.693Z,0
2019-02-23T03:54:26.244Z,0
2019-02-23T03:55:06.875Z,0
2019-02-23T03:55:47.430Z,0
2019-02-23T03:56:28.021Z,0
2019-02-23T03:57:08.574Z,0
2019-02-23T03:57:49.158Z,0
2019-02-23T03:58:29.786Z,0
2019-02-23T03:59:10.358Z,0
2019-02-23T03:59:50.942Z,0
2019-02-23T04:00:31.488Z,0
2019-02-23T04:01:12.088Z,0
2019-02-23T04:01:52.666Z,0
2019-02-23T04:02:33.209Z,0
2019-02-23T04:03:13.794Z,0
2019-02-23T04:03:54.356Z,0
2019-02-23T04:04:34.904Z,0
2019-02-23T04:05:15.474Z,0
2019-02-23T04:05:56.042Z,0
2019-02-23T04:06:36.583Z,0
2019-02-23T04:07:17.169Z,0
2019-02-23T04:07:57.741Z,0
2019-02-23T04:08:38.307Z,0
2019-02-23T04:09:18.913Z,0
2019-02-23T04:09:59.482Z,0
2019-02-23T04:10:40.086Z,0
2019-02-23T04:11:20.635Z,0
2019-02-23T04:12:01.177Z,0
2019-02-23T04:12:41.722Z,0
2019-02-23T04:13:22.299Z,0
2019-02-23T04:14:02.873Z,0
2019-02-23T04:14:43.567Z,0
2019-02-23T04:15:24.050Z,0
2019-02-23T04:16:04.623Z,0
2019-02-23T04:16:45.185Z,0
2019-02-23T04:17:25.778Z,0
2019-02-23T04:18:06.331Z,0
2019-02-23T04:18:46.875Z,0
2019-02-23T04:19:27.446Z,0
2019-02-23T04:20:08.003Z,0
2019-02-23T04:21:00.914Z,0
2019-02-23T04:21:29.119Z,0
2019-02-23T04:22:09.689Z,0
2019-02-23T04:22:50.269Z,0
2019-02-23T04:23:30.822Z,0
2019-02-23T04:24:11.376Z,0
2019-02-23T04:24:51.941Z,0
2019-02-23T04:25:32.515Z,0
2019-02-23T04:26:13.086Z,0
2019-02-23T04:26:53.675Z,0
2019-02-23T04:27:34.272Z,0
2019-02-23T04:28:14.833Z,0
2019-02-23T04:28:55.422Z,0
2019-02-23T04:29:35.987Z,0
2019-02-23T04:30:16.558Z,0
2019-02-23T04:30:57.115Z,0
2019-02-23T04:31:37.698Z,0
2019-02-23T04:32:18.282Z,0
2019-02-23T04:32:58.877Z,0
2019-02-23T04:33:39.465Z,0
2019-02-23T04:34:20.036Z,0
2019-02-23T04:35:00.588Z,0
2019-02-23T04:35:41.138Z,0
2019-02-23T04:36:21.719Z,0
2019-02-23T04:37:02.268Z,0
2019-02-23T04:37:42.866Z,0
2019-02-23T04:38:23.416Z,0
2019-02-23T04:39:04.015Z,0
2019-02-23T04:39:44.548Z,0
2019-02-23T04:40:25.136Z,0
2019-02-23T04:41:05.691Z,0
2019-02-23T04:41:46.266Z,0
2019-02-23T04:42:26.834Z,0
2019-02-23T04:43:07.479Z,0
2019-02-23T04:43:48.045Z,0
2019-02-23T04:44:28.596Z,0
2019-02-23T04:45:09.174Z,0
2019-02-23T04:45:49.734Z,0
2019-02-23T04:46:30.328Z,0
2019-02-23T04:47:10.920Z,0
2019-02-23T04:47:51.545Z,0
2019-02-23T04:48:32.097Z,0
2019-02-23T04:49:12.696Z,0
2019-02-23T04:49:53.220Z,0
2019-02-23T04:50:33.814Z,0
2019-02-23T04:51:14.885Z,0
2019-02-23T04:51:54.937Z,0
2019-02-23T04:52:35.493Z,0
2019-02-23T04:53:16.077Z,0
2019-02-23T04:53:56.633Z,0
2019-02-23T04:54:37.223Z,0
2019-02-23T04:55:17.793Z,0
2019-02-23T04:55:58.396Z,0
2019-02-23T04:56:38.948Z,0
2019-02-23T04:57:19.509Z,0
2019-02-23T04:58:00.100Z,0
2019-02-23T04:58:40.682Z,0
2019-02-23T04:59:21.573Z,0
2019-02-23T05:00:02.154Z,0
2019-02-23T05:00:44.917Z,0
2019-02-23T05:01:23.264Z,0
2019-02-23T05:02:03.874Z,0
2019-02-23T05:02:44.424Z,0
2019-02-23T05:03:24.994Z,0
2019-02-23T05:04:05.537Z,0
2019-02-23T05:04:46.117Z,0
2019-02-23T05:05:26.742Z,0
2019-02-23T05:06:07.327Z,0
2019-02-23T05:06:47.885Z,0
2019-02-23T05:07:28.476Z,0
2019-02-23T05:08:09.043Z,0
2019-02-23T05:08:49.597Z,0
2019-02-23T05:09:30.176Z,0
2019-02-23T05:10:10.787Z,0
2019-02-23T05:10:51.356Z,0
2019-02-23T05:11:31.902Z,0
2019-02-23T05:12:12.563Z,0
2019-02-23T05:12:53.133Z,0
2019-02-23T05:13:33.695Z,0
2019-02-23T05:14:14.252Z,0
2019-02-23T05:14:54.842Z,0
2019-02-23T05:15:35.412Z,0
2019-02-23T05:16:15.981Z,0
2019-02-23T05:16:56.543Z,0
2019-02-23T05:17:37.101Z,0
2019-02-23T05:18:17.675Z,0
2019-02-23T05:18:58.225Z,0
2019-02-23T05:19:38.806Z,0
2019-02-23T05:20:19.384Z,0
2019-02-23T05:20:59.938Z,0
2019-02-23T05:21:40.502Z,0
2019-02-23T05:22:21.082Z,0
2019-02-23T05:23:01.632Z,0
2019-02-23T05:23:42.225Z,0
2019-02-23T05:24:22.777Z,0
2019-02-23T05:25:03.342Z,0
2019-02-23T05:25:43.900Z,0
2019-02-23T05:26:24.527Z,0
2019-02-23T05:27:05.126Z,0
2019-02-23T05:27:45.671Z,0
2019-02-23T05:28:26.253Z,0
2019-02-23T05:29:06.851Z,0
2019-02-23T05:29:47.414Z,0
2019-02-23T05:30:27.969Z,0
2019-02-23T05:31:08.599Z,0
2019-02-23T05:31:49.171Z,0
2019-02-23T05:32:29.724Z,0
2019-02-23T05:33:10.272Z,0
2019-02-23T05:33:50.845Z,0
2019-02-23T05:34:31.378Z,0
2019-02-23T05:35:11.970Z,0
2019-02-23T05:35:52.534Z,4
2019-02-23T05:36:33.114Z,4
2019-02-23T05:37:13.720Z,4
2019-02-23T05:37:54.310Z,4
2019-02-23T05:38:34.886Z,0
2019-02-23T05:39:17.729Z,0
2019-02-23T05:39:56.014Z,4
2019-02-23T05:40:36.568Z,4
2019-02-23T05:41:17.149Z,4
2019-02-23T05:41:57.709Z,4
2019-02-23T05:42:38.281Z,4
2019-02-23T05:43:18.883Z,4
2019-02-23T05:43:59.453Z,4
2019-02-23T05:44:40.031Z,8
2019-02-23T05:45:20.602Z,8
2019-02-23T05:46:01.179Z,12
2019-02-23T05:46:41.747Z,8
2019-02-23T05:47:22.313Z,12
2019-02-23T05:48:02.869Z,12
2019-02-23T05:48:43.475Z,16
2019-02-23T05:49:24.038Z,20
2019-02-23T05:50:04.598Z,20
2019-02-23T05:50:45.213Z,24
2019-02-23T05:51:25.767Z,28
2019-02-23T05:52:06.366Z,36
2019-02-23T05:52:46.888Z,40
2019-02-23T05:53:27.443Z,40
2019-02-23T05:54:07.983Z,44
2019-02-23T05:54:48.570Z,44
2019-02-23T05:55:29.152Z,48
2019-02-23T05:56:12.875Z,48
2019-02-23T05:56:50.271Z,52
2019-02-23T05:57:30.842Z,56
2019-02-23T05:58:11.412Z,60
2019-02-23T05:58:52.079Z,64
2019-02-23T05:59:32.658Z,72
2019-02-23T06:00:13.218Z,72
2019-02-23T06:00:53.815Z,80
2019-02-23T06:01:34.352Z,84
2019-02-23T06:02:14.952Z,92
2019-02-23T06:02:55.528Z,96
2019-02-23T06:03:36.101Z,104
2019-02-23T06:04:16.696Z,112
2019-02-23T06:04:57.272Z,120
2019-02-23T06:05:37.839Z,124
2019-02-23T06:06:18.402Z,136
2019-02-23T06:06:58.979Z,148
2019-02-23T06:07:39.570Z,160
2019-02-23T06:08:20.210Z,176
2019-02-23T06:09:00.791Z,192
2019-02-23T06:09:41.425Z,208
2019-02-23T06:10:22.010Z,224
2019-02-23T06:11:02.746Z,240
2019-02-23T06:11:43.302Z,264
2019-02-23T06:12:23.847Z,288
2019-02-23T06:13:04.400Z,308
2019-02-23T06:13:44.978Z,332
2019-02-23T06:14:27.545Z,364
2019-02-23T06:15:08.092Z,388
2019-02-23T06:15:48.670Z,420
2019-02-23T06:16:29.285Z,452
2019-02-23T06:17:09.897Z,484
2019-02-23T06:17:50.533Z,516
2019-02-23T06:18:31.109Z,548
2019-02-23T06:19:11.689Z,580
2019-02-23T06:19:52.293Z,616
2019-02-23T06:20:32.867Z,652
2019-02-23T06:21:13.415Z,684
2019-02-23T06:21:54.590Z,720
2019-02-23T06:22:34.519Z,764
2019-02-23T06:23:15.090Z,800
2019-02-23T06:23:55.647Z,840
2019-02-23T06:24:36.189Z,880
2019-02-23T06:25:16.799Z,924
2019-02-23T06:25:57.375Z,964
2019-02-23T06:26:37.944Z,1012
2019-02-23T06:27:18.509Z,1056
2019-02-23T06:27:59.076Z,1104
2019-02-23T06:28:39.656Z,1152
2019-02-23T06:29:20.267Z,1204
2019-02-23T06:30:00.872Z,1252
2019-02-23T06:30:41.464Z,1300
2019-02-23T06:31:22.059Z,1352
2019-02-23T06:32:02.645Z,1404
2019-02-23T06:32:43.208Z,1460
2019-02-23T06:33:23.773Z,1512
2019-02-23T06:34:15.384Z,1564
2019-02-23T06:34:44.910Z,1616
2019-02-23T06:35:25.490Z,1668
2019-02-23T06:36:06.079Z,1716
2019-02-23T06:36:46.727Z,1768
2019-02-23T06:37:27.297Z,1824
2019-02-23T06:38:07.890Z,1876
2019-02-23T06:38:48.464Z,1928
2019-02-23T06:39:29.028Z,1976
2019-02-23T06:40:09.587Z,2028
2019-02-23T06:40:50.149Z,2080
2019-02-23T06:41:30.709Z,2132
2019-02-23T06:42:11.279Z,2184
2019-02-23T06:42:51.826Z,2232
2019-02-23T06:43:32.389Z,2284
2019-02-23T06:44:12.943Z,2332
2019-02-23T06:44:53.518Z,2380
2019-02-23T06:45:34.114Z,2424
2019-02-23T06:46:14.654Z,2476
2019-02-23T06:46:55.228Z,2520
2019-02-23T06:47:35.797Z,2564
2019-02-23T06:48:16.393Z,2612
2019-02-23T06:48:57.010Z,2660
2019-02-23T06:49:37.579Z,2704
2019-02-23T06:50:18.166Z,2752
2019-02-23T06:50:58.710Z,2792
2019-02-23T06:51:39.262Z,2840
2019-02-23T06:52:19.821Z,2884
2019-02-23T06:53:00.416Z,2928
2019-02-23T06:53:40.992Z,2980
2019-02-23T06:54:21.565Z,3020
2019-02-23T06:55:02.117Z,3064
2019-02-23T06:55:42.681Z,3108
2019-02-23T06:56:23.252Z,3144
2019-02-23T06:57:03.815Z,3188
2019-02-23T06:57:44.372Z,3236
2019-02-23T06:58:24.948Z,3276
2019-02-23T06:59:05.497Z,3320
2019-02-23T06:59:46.077Z,3364
2019-02-23T07:00:26.633Z,3408
2019-02-23T07:01:07.186Z,3456
2019-02-23T07:01:47.753Z,3500
2019-02-23T07:02:28.308Z,3544
2019-02-23T07:03:08.861Z,3592
2019-02-23T07:03:49.428Z,3636
2019-02-23T07:04:29.986Z,3684
2019-02-23T07:05:10.536Z,3732
2019-02-23T07:05:51.109Z,3780
2019-02-23T07:06:31.676Z,3820
2019-02-23T07:07:12.253Z,3856
2019-02-23T07:07:52.899Z,3872
2019-02-23T07:08:33.449Z,3888
2019-02-23T07:09:14.072Z,3928
2019-02-23T07:09:54.634Z,3944
2019-02-23T07:10:35.224Z,3980
2019-02-23T07:11:17.406Z,4020
2019-02-23T07:11:56.397Z,4076
2019-02-23T07:12:36.953Z,4096
2019-02-23T07:13:17.543Z,4120
2019-02-23T07:13:58.121Z,4136
2019-02-23T07:14:38.698Z,4188
2019-02-23T07:15:19.258Z,4244
2019-02-23T07:15:59.855Z,4296
2019-02-23T07:16:40.455Z,4364
2019-02-23T07:17:20.994Z,4396
2019-02-23T07:18:01.543Z,4412
2019-02-23T07:18:42.110Z,4408
2019-02-23T07:19:22.719Z,4416
2019-02-23T07:20:03.288Z,4488
2019-02-23T07:20:44.694Z,4516
2019-02-23T07:21:24.416Z,4552
2019-02-23T07:22:14.727Z,4576
2019-02-23T07:22:45.586Z,4620
2019-02-23T07:23:26.167Z,4664
2019-02-23T07:24:06.721Z,4700
2019-02-23T07:24:47.327Z,4744
2019-02-23T07:25:27.961Z,4756
2019-02-23T07:26:08.581Z,4788
2019-02-23T07:26:49.134Z,4820
2019-02-23T07:27:29.720Z,4820
2019-02-23T07:28:10.985Z,4848
2019-02-23T07:28:50.864Z,4868
2019-02-23T07:29:31.445Z,4880
2019-02-23T07:30:11.999Z,4880
2019-02-23T07:30:52.572Z,4892
2019-02-23T07:31:33.142Z,4932
2019-02-23T07:32:13.715Z,4964
2019-02-23T07:32:54.317Z,5004
2019-02-23T07:33:34.873Z,5032
2019-02-23T07:34:15.435Z,5068
2019-02-23T07:34:56.009Z,5124
2019-02-23T07:35:36.606Z,5204
2019-02-23T07:36:17.152Z,5292
2019-02-23T07:36:57.695Z,5416
2019-02-23T07:37:38.271Z,5568
2019-02-23T07:38:18.824Z,5780
2019-02-23T07:38:59.383Z,6020
2019-02-23T07:39:39.972Z,6276
2019-02-23T07:40:20.516Z,6480
2019-02-23T07:41:01.089Z,6592
2019-02-23T07:41:41.643Z,6584
2019-02-23T07:42:22.210Z,6532
2019-02-23T07:43:02.763Z,6440
2019-02-23T07:43:43.332Z,6356
2019-02-23T07:44:23.892Z,6356
2019-02-23T07:45:04.470Z,6368
2019-02-23T07:45:45.030Z,6392
2019-02-23T07:46:25.587Z,6416
2019-02-23T07:47:06.156Z,6444
2019-02-23T07:47:46.726Z,6340
2019-02-23T07:48:27.301Z,6276
2019-02-23T07:49:07.856Z,6312
2019-02-23T07:49:48.428Z,6364
2019-02-23T07:50:28.991Z,6376
2019-02-23T07:51:09.574Z,6320
2019-02-23T07:51:50.160Z,6300
2019-02-23T07:52:30.730Z,6588
2019-02-23T07:53:11.289Z,6916
2019-02-23T07:53:51.847Z,7084
2019-02-23T07:54:32.408Z,7308
2019-02-23T07:55:12.972Z,7432
2019-02-23T07:55:53.531Z,7544
2019-02-23T07:56:35.133Z,7636
2019-02-23T07:57:14.718Z,7668
2019-02-23T07:57:55.300Z,7948
2019-02-23T07:58:35.845Z,8104
2019-02-23T07:59:16.434Z,8212
2019-02-23T07:59:56.992Z,8356
2019-02-23T08:00:37.548Z,8288
2019-02-23T08:01:18.100Z,8400
2019-02-23T08:01:59.344Z,8796
2019-02-23T08:02:40.040Z,9132
2019-02-23T08:03:20.599Z,9640
2019-02-23T08:04:01.180Z,10100
2019-02-23T08:04:41.876Z,10188
2019-02-23T08:05:22.461Z,10612
2019-02-23T08:06:03.248Z,10908
2019-02-23T08:06:43.865Z,11740
2019-02-23T08:07:24.674Z,13048
2019-02-23T08:08:05.541Z,14396
2019-02-23T08:08:46.217Z,16544
2019-02-23T08:09:26.868Z,19456
2019-02-23T08:10:07.589Z,22528
2019-02-23T08:10:48.398Z,25120
2019-02-23T08:11:29.350Z,28640
2019-02-23T08:12:09.991Z,31904
2019-02-23T08:12:50.792Z,42208
2019-02-23T08:13:31.503Z,50208
2019-02-23T08:14:12.094Z,57184
2019-02-23T08:14:52.650Z,58560
2019-02-23T08:15:33.203Z,61024
2019-02-23T08:16:13.772Z,61088
2019-02-23T08:16:54.344Z,60608
2019-02-23T08:17:34.933Z,62528
2019-02-23T08:18:15.490Z,60160
2019-02-23T08:18:56.054Z,58592
2019-02-23T08:19:36.609Z,57664
2019-02-23T08:20:17.228Z,60416
2019-02-23T08:20:57.820Z,62368
2019-02-23T08:21:38.371Z,62528
2019-02-23T08:22:18.928Z,59104
2019-02-23T08:25:48.111Z,59360
2019-02-23T08:26:28.693Z,62880
2019-02-23T08:27:09.261Z,65792
2019-02-23T08:27:49.927Z,64640
2019-02-23T08:28:30.434Z,62016
2019-02-23T08:29:10.991Z,62464
2019-02-23T08:29:51.654Z,63200
2019-02-23T08:30:32.207Z,62624
2019-02-23T08:31:13.436Z,52736
2019-02-23T08:31:53.381Z,62176
2019-02-23T08:32:34.013Z,61600
2019-02-23T08:33:14.598Z,63264
2019-02-23T08:33:55.170Z,63744
2019-02-23T08:34:35.804Z,63488
2019-02-23T08:35:16.342Z,63776
2019-02-23T08:35:56.938Z,66272
2019-02-23T08:36:37.535Z,60672
2019-02-23T08:37:18.090Z,65248
2019-02-23T08:37:58.647Z,66080
2019-02-23T08:38:39.237Z,68448
2019-02-23T08:39:19.789Z,63808
2019-02-23T08:40:00.454Z,64160
2019-02-23T08:40:40.919Z,63136
2019-02-23T08:41:21.487Z,63328
2019-02-23T08:42:02.053Z,62720
2019-02-23T08:42:42.616Z,61568
2019-02-23T08:43:23.199Z,60768
2019-02-23T08:44:03.754Z,59680
2019-02-23T08:44:44.307Z,58240
2019-02-23T08:45:24.873Z,58688
2019-02-23T08:46:05.446Z,60256
2019-02-23T08:46:46.007Z,59776
2019-02-23T08:47:26.580Z,56096
2019-02-23T08:48:07.137Z,53440
2019-02-23T08:48:47.724Z,49344
2019-02-23T08:49:28.321Z,47264
2019-02-23T08:50:08.909Z,43968
2019-02-23T08:50:49.482Z,42272
2019-02-23T08:51:30.049Z,41440
2019-02-23T08:52:10.689Z,44256
2019-02-23T08:52:51.244Z,48992
2019-02-23T08:53:31.830Z,45536
2019-02-23T08:54:12.433Z,42240
2019-02-23T08:54:52.957Z,39840
2019-02-23T08:55:33.544Z,43872
2019-02-23T08:56:14.151Z,41504
2019-02-23T08:56:55.406Z,40896
2019-02-23T08:57:35.303Z,38528
2019-02-23T08:58:15.911Z,37344
2019-02-23T08:58:58.048Z,37152
2019-02-23T08:59:38.851Z,35616
2019-02-23T09:00:19.431Z,36064
2019-02-23T09:01:00.078Z,34496
2019-02-23T09:01:40.651Z,32960
2019-02-23T09:02:21.434Z,31616
2019-02-23T09:03:02.031Z,29856
2019-02-23T09:03:42.631Z,27584
2019-02-23T09:04:23.318Z,23808
2019-02-23T09:05:03.928Z,21728
2019-02-23T09:05:44.482Z,20352
2019-02-23T09:06:25.070Z,19488
2019-02-23T09:07:05.654Z,19168
2019-02-23T09:07:46.255Z,18528
2019-02-23T09:08:26.825Z,17760
2019-02-23T09:09:08.233Z,17280
2019-02-23T09:09:48.307Z,16448
2019-02-23T09:10:28.982Z,15488
2019-02-23T09:11:09.517Z,14676
2019-02-23T09:11:50.077Z,13940
2019-02-23T09:12:30.689Z,13472
2019-02-23T09:13:11.293Z,12936
2019-02-23T09:13:51.889Z,12408
2019-02-23T09:14:32.435Z,11988
2019-02-23T09:15:13.198Z,11656
2019-02-23T09:15:54.606Z,11372
2019-02-23T09:16:35.283Z,10620
2019-02-23T09:17:16.141Z,10736
2019-02-23T09:17:56.836Z,10480
2019-02-23T09:18:37.397Z,10184
2019-02-23T09:19:17.968Z,9856
2019-02-23T09:19:58.523Z,9460
2019-02-23T09:20:39.124Z,9112
2019-02-23T09:21:19.682Z,9048
2019-02-23T09:22:00.437Z,8792
2019-02-23T09:22:41.046Z,8564
2019-02-23T09:23:21.659Z,8308
2019-02-23T09:24:02.248Z,8076
2019-02-23T09:24:42.842Z,7936
2019-02-23T09:25:23.407Z,7744
2019-02-23T09:26:03.989Z,7664
2019-02-23T09:26:44.544Z,7584
2019-02-23T09:27:25.119Z,7540
2019-02-23T09:28:05.699Z,7360
2019-02-23T09:28:46.280Z,7252
2019-02-23T09:29:26.854Z,7076
2019-02-23T09:30:07.513Z,6996
2019-02-23T09:30:48.092Z,6852
2019-02-23T09:31:28.666Z,6704
2019-02-23T09:32:09.224Z,6264
2019-02-23T09:32:49.824Z,6608
2019-02-23T09:33:30.391Z,6556
2019-02-23T09:34:10.952Z,6472
2019-02-23T09:34:51.548Z,6144
2019-02-23T09:35:32.113Z,6288
2019-02-23T09:36:12.716Z,6216
2019-02-23T09:36:53.279Z,6044